Time;durP1;ratioP1;P1;durP2;ratioP2;P2;SDS_P1;SDS_P2;PMS_P1;PMS_P2;Temp;Humidity;BMP_temperature;BMP_pressure;BME280_temperature;BME280_humidity;BME280_pressure;Samples;Min_cycle;Max_cycle;Signal;HPM_P1;HPM_P2
2022/01/16 00:02:08;;;;;;;14.90;9.67;;;;;;;1.83;64.98;95785.44;5015728;28;20493;-80
2022/01/16 00:04:34;;;;;;;11.13;8.67;;;;;;;1.79;65.01;95782.13;5015678;28;20478;-80
2022/01/16 00:07:04;;;;;;;23.60;9.65;;;;;;;1.75;64.93;95765.00;4997455;28;20455;-80
2022/01/16 00:09:31;;;;;;;15.23;9.95;;;;;;;1.77;65.20;95739.09;5015703;28;20185;-80
2022/01/16 00:12:00;;;;;;;14.90;9.38;;;;;;;1.75;65.34;95754.66;5015305;28;20215;-80
2022/01/16 00:14:30;;;;;;;15.93;9.40;;;;;;;1.54;64.97;95771.78;5015736;28;20204;-80
2022/01/16 00:16:57;;;;;;;12.77;8.30;;;;;;;1.51;65.43;95781.41;5015092;28;20926;-80
2022/01/16 00:19:24;;;;;;;16.40;8.33;;;;;;;1.50;65.80;95795.25;5015366;28;20435;-80
2022/01/16 00:21:51;;;;;;;16.05;9.43;;;;;;;1.43;65.80;95814.44;5015067;28;20471;-80
2022/01/16 00:24:18;;;;;;;14.57;9.73;;;;;;;1.43;66.20;95833.38;5015062;28;20206;-80
2022/01/16 00:26:45;;;;;;;16.60;9.37;;;;;;;1.44;66.64;95842.81;5015137;28;20447;-80
2022/01/16 00:29:12;;;;;;;16.23;9.27;;;;;;;1.44;66.32;95860.91;5015514;28;20443;-80
2022/01/16 00:31:41;;;;;;;12.70;8.23;;;;;;;1.41;67.13;95901.56;5015200;28;20505;-80
2022/01/16 00:34:09;;;;;;;10.83;8.23;;;;;;;1.33;66.73;95851.84;5015564;28;20450;-80
2022/01/16 00:36:36;;;;;;;13.10;8.50;;;;;;;1.36;66.66;95763.84;5015109;28;20438;-79
2022/01/16 00:39:05;;;;;;;11.03;8.10;;;;;;;1.30;66.60;95792.50;5014726;28;20458;-79
2022/01/16 00:41:32;;;;;;;10.52;8.25;;;;;;;1.32;66.32;95832.06;5014474;28;20502;-80
2022/01/16 00:43:59;;;;;;;13.43;8.20;;;;;;;1.33;66.33;95714.81;5014875;28;20212;-80
2022/01/16 00:46:26;;;;;;;14.80;8.40;;;;;;;1.29;66.60;95688.22;4996369;28;20459;-80
2022/01/16 00:48:54;;;;;;;11.10;7.50;;;;;;;1.27;66.34;95733.13;5014625;28;20212;-80
2022/01/16 00:51:21;;;;;;;13.13;8.20;;;;;;;1.20;66.24;95644.63;5014878;28;20232;-80
2022/01/16 00:53:48;;;;;;;13.68;8.65;;;;;;;1.19;66.43;95642.94;5014662;28;20204;-79
2022/01/16 00:56:15;;;;;;;15.98;7.72;;;;;;;1.17;66.57;95675.75;5014728;28;20667;-80
2022/01/16 00:58:42;;;;;;;10.30;7.73;;;;;;;1.13;66.84;95645.72;5014990;28;20570;-79
2022/01/16 01:01:10;;;;;;;13.20;7.93;;;;;;;1.14;66.95;95687.03;5014257;28;20487;-80
2022/01/16 01:03:37;;;;;;;11.25;7.25;;;;;;;1.09;66.59;95732.88;5013862;28;20649;-80
2022/01/16 01:06:05;;;;;;;9.27;6.00;;;;;;;0.98;66.19;95747.06;5014745;28;20202;-80
2022/01/16 01:08:32;;;;;;;8.98;7.15;;;;;;;0.94;66.59;95728.22;5014250;28;20630;-80
2022/01/16 01:11:02;;;;;;;13.30;7.07;;;;;;;0.86;66.97;95714.72;5014655;28;20208;-80
2022/01/16 01:13:34;;;;;;;12.38;6.97;;;;;;;0.84;66.98;95752.66;5014695;28;20546;-80
2022/01/16 01:16:04;;;;;;;12.07;7.60;;;;;;;0.83;66.74;95743.22;5014483;28;20670;-80
2022/01/16 01:18:32;;;;;;;9.85;6.85;;;;;;;0.86;66.87;95722.47;5014517;28;20196;-80
2022/01/16 01:21:02;;;;;;;7.67;6.83;;;;;;;0.83;66.56;95728.56;5014020;28;20230;-80
2022/01/16 01:23:31;;;;;;;9.18;7.25;;;;;;;0.82;67.14;95713.97;5014517;28;20478;-79
2022/01/16 01:25:58;;;;;;;13.13;7.65;;;;;;;0.88;67.18;95723.28;5014440;28;20655;-80
2022/01/16 01:28:29;;;;;;;18.45;7.85;;;;;;;0.89;67.42;95743.91;5014533;28;20204;-80
2022/01/16 01:30:55;;;;;;;9.23;7.45;;;;;;;0.91;67.74;95746.44;5014331;28;20192;-80
2022/01/16 01:33:24;;;;;;;11.57;8.27;;;;;;;0.90;68.01;95743.00;5013838;28;20681;-80
2022/01/16 01:35:51;;;;;;;12.60;8.40;;;;;;;0.89;67.67;95743.91;5014313;28;20195;-79
2022/01/16 01:38:20;;;;;;;9.60;6.47;;;;;;;0.78;68.05;95753.72;4996044;28;20773;-80
2022/01/16 01:40:49;;;;;;;13.13;7.97;;;;;;;0.79;68.25;95760.56;5014427;28;20484;-80
2022/01/16 01:51:35;;;;;;;8.98;6.95;;;;;;;0.63;68.47;95798.13;5013836;28;20810;-80
2022/01/16 01:54:02;;;;;;;11.65;6.95;;;;;;;0.64;69.12;95784.34;5014026;28;20200;-80
2022/01/16 01:56:31;;;;;;;14.17;6.97;;;;;;;0.64;69.15;95778.31;5013921;28;20216;-81
2022/01/16 01:59:01;;;;;;;9.88;6.70;;;;;;;0.64;68.65;95780.91;5014202;28;20421;-82
2022/01/16 02:01:30;;;;;;;13.65;7.55;;;;;;;0.55;68.29;95787.19;5013678;28;20224;-80
2022/01/16 02:03:57;;;;;;;12.25;7.65;;;;;;;0.61;68.11;95781.84;5014682;28;20203;-80
2022/01/16 02:06:26;;;;;;;11.20;6.47;;;;;;;0.66;68.13;95786.88;5013826;28;20203;-80
2022/01/16 02:08:54;;;;;;;7.45;5.75;;;;;;;0.71;67.44;95790.13;5014091;28;20206;-80
2022/01/16 02:11:25;;;;;;;11.30;5.97;;;;;;;0.68;67.74;95801.41;5013907;28;20215;-80
2022/01/16 02:13:58;;;;;;;15.63;6.38;;;;;;;0.63;68.22;95786.97;5014600;28;20244;-80
2022/01/16 02:33:23;;;;;;;9.50;6.72;;;;;;;0.63;67.30;95790.38;4955399;29;20607;-80
2022/01/16 02:35:53;;;;;;;13.88;6.53;;;;;;;0.56;67.65;95781.97;4955197;29;20198;-80
2022/01/16 02:38:22;;;;;;;10.38;6.20;;;;;;;0.55;67.92;95784.59;4955158;29;20206;-80
2022/01/16 02:40:50;;;;;;;9.50;6.32;;;;;;;0.55;67.95;95775.13;4954876;29;20222;-80
2022/01/16 02:43:20;;;;;;;12.80;7.05;;;;;;;0.44;67.27;95772.03;4955168;29;20730;-80
2022/01/16 02:45:58;;;;;;;8.50;6.82;;;;;;;0.49;67.53;95775.31;4955119;29;20214;-80
2022/01/16 02:48:26;;;;;;;7.38;6.57;;;;;;;0.46;67.80;95787.47;4925854;29;20216;-80
2022/01/16 02:50:53;;;;;;;9.38;6.55;;;;;;;0.45;67.59;95773.72;4954664;29;20289;-80
2022/01/16 02:53:25;;;;;;;9.15;6.25;;;;;;;0.42;67.47;95772.97;4923125;29;20216;-80
2022/01/16 02:55:52;;;;;;;10.98;7.13;;;;;;;0.44;68.25;95781.53;4954864;29;20200;-80
2022/01/16 02:58:19;;;;;;;9.90;7.30;;;;;;;0.46;68.25;95779.72;4954777;29;20207;-80
2022/01/16 03:00:46;;;;;;;13.93;7.68;;;;;;;0.45;68.80;95775.47;4954788;29;20689;-80
2022/01/16 03:03:13;;;;;;;13.60;7.15;;;;;;;0.44;68.35;95773.78;4954724;29;20213;-80
2022/01/16 03:05:40;;;;;;;14.32;7.90;;;;;;;0.33;69.03;95774.13;4954670;29;20211;-80
2022/01/16 03:08:06;;;;;;;12.70;8.93;;;;;;;0.38;68.92;95777.41;4907149;29;20213;-80
2022/01/16 03:13:20;;;;;;;10.05;6.80;;;;;;;0.41;69.19;95772.13;5015278;28;20284;-80
2022/01/16 03:15:51;;;;;;;16.83;7.35;;;;;;;0.37;68.76;95773.13;5015368;28;20204;-80
2022/01/16 03:23:47;;;;;;;9.70;6.43;;;;;;;0.33;68.52;95778.44;5014993;28;20250;-80
2022/01/16 03:26:16;;;;;;;10.25;7.22;;;;;;;0.30;68.84;95771.63;4995724;28;20566;-80
2022/01/16 03:28:42;;;;;;;9.80;7.30;;;;;;;0.30;68.42;95774.22;4996471;28;20208;-80
2022/01/16 03:31:09;;;;;;;10.05;7.93;;;;;;;0.26;68.89;95778.59;5015204;28;20202;-80
2022/01/16 03:33:36;;;;;;;16.30;8.52;;;;;;;0.21;69.09;95771.91;5014840;28;20229;-80
2022/01/16 03:36:03;;;;;;;11.20;7.28;;;;;;;0.11;69.13;95771.34;5015210;28;20200;-80
2022/01/16 03:38:30;;;;;;;11.43;7.95;;;;;;;0.11;70.56;95773.06;5014879;28;20204;-80
2022/01/16 03:40:57;;;;;;;8.38;7.25;;;;;;;0.11;71.58;95781.66;5014732;28;20224;-80
2022/01/16 03:43:25;;;;;;;12.45;8.32;;;;;;;0.16;71.78;95773.78;5014664;28;20279;-80
2022/01/16 03:45:52;;;;;;;8.85;7.53;;;;;;;0.19;71.96;95784.00;4996381;28;20203;-80
2022/01/16 03:48:19;;;;;;;11.45;6.25;;;;;;;0.26;71.11;95788.09;5014839;28;20217;-80
2022/01/16 03:50:46;;;;;;;8.65;6.40;;;;;;;0.23;70.70;95772.69;5014956;28;20240;-80
2022/01/16 03:53:13;;;;;;;12.35;6.00;;;;;;;0.16;71.77;95787.53;4996109;28;20224;-80
2022/01/16 03:55:40;;;;;;;16.05;6.72;;;;;;;0.13;72.41;95789.34;5014795;28;20548;-80
2022/01/16 03:58:09;;;;;;;9.23;5.97;;;;;;;0.13;72.37;95791.94;5014413;28;20214;-80
2022/01/16 04:00:38;;;;;;;16.42;7.60;;;;;;;0.11;72.87;95778.22;5014350;28;20428;-80
2022/01/16 04:03:05;;;;;;;8.75;6.88;;;;;;;0.15;72.81;95785.00;5014726;28;20204;-80
2022/01/16 04:05:32;;;;;;;11.73;7.53;;;;;;;0.23;72.83;95789.03;5014126;28;20206;-80
2022/01/16 04:07:59;;;;;;;9.95;7.25;;;;;;;0.30;72.10;95794.88;5014165;28;20208;-80
2022/01/16 04:10:26;;;;;;;10.98;6.85;;;;;;;0.33;72.14;95799.94;5014198;28;20199;-80
2022/01/16 04:12:53;;;;;;;11.18;8.00;;;;;;;0.37;72.43;95804.09;5014056;28;20208;-80
2022/01/16 04:15:32;;;;;;;10.85;7.32;;;;;;;0.39;72.52;95809.22;5014362;28;20200;-80
2022/01/16 04:18:04;;;;;;;12.05;7.00;;;;;;;0.37;72.92;95803.25;5014165;28;20717;-80
2022/01/16 04:20:31;;;;;;;8.95;7.57;;;;;;;0.40;73.04;95804.00;5013898;28;20202;-80
2022/01/16 04:22:57;;;;;;;7.88;6.70;;;;;;;0.47;73.34;95808.09;5014036;28;20250;-80
2022/01/16 04:25:24;;;;;;;10.82;7.80;;;;;;;0.54;74.00;95816.47;5014211;28;20201;-80
2022/01/16 04:27:51;;;;;;;10.18;7.38;;;;;;;0.57;74.05;95811.22;5013921;28;20575;-80
2022/01/16 04:30:18;;;;;;;14.00;7.18;;;;;;;0.65;74.61;95813.59;5013837;28;20211;-80
2022/01/16 04:32:45;;;;;;;10.18;7.28;;;;;;;0.66;74.80;95823.03;5013784;28;20219;-80
2022/01/16 04:35:13;;;;;;;11.35;7.32;;;;;;;0.64;74.23;95820.50;4995528;28;20200;-80
2022/01/16 04:37:40;;;;;;;12.68;7.50;;;;;;;0.72;73.96;95828.00;4995236;28;20196;-80
2022/01/16 04:40:09;;;;;;;10.98;7.70;;;;;;;0.75;74.26;95822.72;5014139;28;20207;-79
2022/01/16 04:45:21;;;;;;;19.33;10.23;;;;;;;0.70;73.14;95816.88;5015901;28;20652;-80
2022/01/16 04:47:50;;;;;;;16.63;9.00;;;;;;;0.71;73.61;95821.13;5013364;28;20199;-80
2022/01/16 04:50:22;;;;;;;16.60;9.70;;;;;;;0.69;73.72;95822.91;5013174;28;20483;-80
2022/01/16 04:52:49;;;;;;;13.37;8.63;;;;;;;0.66;74.38;95810.94;5013433;28;20209;-80
2022/01/16 04:55:17;;;;;;;11.50;8.83;;;;;;;0.73;74.37;95807.28;5013419;28;20810;-80
2022/01/16 04:57:44;;;;;;;13.68;8.15;;;;;;;0.80;74.71;95813.94;5013380;28;20445;-80
2022/01/16 05:00:14;;;;;;;11.32;8.15;;;;;;;0.82;75.10;95814.72;5013118;28;20230;-80
2022/01/16 05:02:41;;;;;;;13.95;9.15;;;;;;;0.79;74.07;95820.00;5013081;28;20247;-80
2022/01/16 05:05:09;;;;;;;17.40;8.35;;;;;;;0.75;74.50;95814.97;5013267;28;20208;-80
2022/01/16 05:07:37;;;;;;;13.70;9.55;;;;;;;0.72;74.26;95813.34;5013105;28;20569;-80
2022/01/16 05:10:06;;;;;;;10.98;7.65;;;;;;;0.74;75.11;95813.28;5013256;28;20575;-80
2022/01/16 05:12:35;;;;;;;14.57;8.13;;;;;;;0.77;74.82;95813.19;5013045;28;20204;-80
2022/01/16 05:17:47;;;;;;;14.70;9.25;;;;;;;0.93;75.16;95804.06;5013084;28;20282;-80
2022/01/16 05:20:14;;;;;;;11.77;8.52;;;;;;;0.95;75.16;95804.84;5012786;28;20200;-80
2022/01/16 05:22:42;;;;;;;15.10;10.02;;;;;;;0.93;75.62;95811.81;5012638;28;20228;-80
2022/01/16 05:25:14;;;;;;;14.05;9.80;;;;;;;0.90;75.81;95809.34;5012764;28;20204;-80
2022/01/16 05:27:41;;;;;;;21.95;12.25;;;;;;;0.88;76.40;95804.22;5013010;28;20232;-80
2022/01/16 05:30:09;;;;;;;16.35;10.25;;;;;;;0.85;76.11;95808.59;5012797;28;20651;-80
2022/01/16 05:32:36;;;;;;;17.10;10.82;;;;;;;0.89;76.17;95802.47;5012793;28;20215;-80
2022/01/16 05:35:03;;;;;;;16.37;10.67;;;;;;;0.90;76.13;95812.75;5013162;28;20203;-80
2022/01/16 05:37:30;;;;;;;11.77;9.50;;;;;;;0.91;76.62;95819.63;5012827;28;20443;-80
2022/01/16 05:39:59;;;;;;;14.15;9.93;;;;;;;0.96;76.50;95810.88;4994214;28;20196;-80
2022/01/16 05:42:25;;;;;;;13.98;10.38;;;;;;;0.99;76.54;95815.94;4994573;28;20239;-80
2022/01/16 05:44:52;;;;;;;18.45;10.68;;;;;;;0.95;76.59;95820.34;5012573;28;20196;-80
2022/01/16 05:47:19;;;;;;;16.75;10.68;;;;;;;0.93;76.34;95835.91;5012793;28;20215;-80
2022/01/16 05:49:46;;;;;;;22.60;10.50;;;;;;;0.87;76.33;95830.09;5011969;28;20207;-80
2022/01/16 05:52:13;;;;;;;13.82;10.98;;;;;;;0.83;77.33;95831.91;5012330;28;20236;-80
2022/01/16 05:54:40;;;;;;;17.13;9.53;;;;;;;0.83;77.38;95831.06;5012418;28;20211;-80
2022/01/16 05:57:09;;;;;;;15.57;10.35;;;;;;;0.84;77.24;95832.75;5012503;28;20929;-80
2022/01/16 05:59:36;;;;;;;12.85;10.20;;;;;;;0.96;77.12;95842.72;5012709;28;20211;-80
2022/01/16 06:02:03;;;;;;;24.30;10.48;;;;;;;1.02;76.82;95842.50;5012452;28;20219;-83
2022/01/16 06:04:30;;;;;;;14.80;11.18;;;;;;;1.07;77.15;95832.03;5014337;28;20192;-88
2022/01/16 06:06:57;;;;;;;19.38;10.90;;;;;;;1.13;76.42;95835.25;5014157;28;20698;-79
2022/01/16 06:09:26;;;;;;;17.60;10.82;;;;;;;1.12;76.18;95838.72;4995307;28;20202;-79
2022/01/16 06:11:54;;;;;;;15.57;10.23;;;;;;;1.08;76.58;95831.97;5013399;28;20207;-79
2022/01/16 06:14:23;;;;;;;16.57;12.10;;;;;;;1.10;76.48;95831.91;5013387;28;20212;-79
2022/01/16 06:16:50;;;;;;;17.20;10.20;;;;;;;1.12;76.53;95832.72;5013837;28;20454;-79
2022/01/16 06:19:17;;;;;;;20.40;12.15;;;;;;;1.17;76.62;95833.44;5013882;28;20207;-79
2022/01/16 06:21:44;;;;;;;18.20;10.60;;;;;;;1.22;76.96;95832.38;5013692;28;20231;-79
2022/01/16 06:24:11;;;;;;;22.40;12.35;;;;;;;1.18;76.72;95833.38;5013257;28;20890;-79
2022/01/16 06:26:38;;;;;;;21.00;10.88;;;;;;;1.18;76.84;95833.38;5013389;28;20206;-79
2022/01/16 06:29:05;;;;;;;14.32;10.20;;;;;;;1.20;77.40;95844.50;5012818;28;20207;-79
2022/01/16 06:31:34;;;;;;;19.30;13.10;;;;;;;1.25;76.95;95846.94;5013124;28;20211;-79
2022/01/16 06:34:02;;;;;;;30.10;14.55;;;;;;;1.33;76.74;95846.66;5013725;28;20212;-79
2022/01/16 06:36:29;;;;;;;75.78;33.17;;;;;;;1.46;76.83;95856.56;4994947;28;20200;-79
2022/01/16 06:38:56;;;;;;;41.55;20.83;;;;;;;1.54;76.24;95862.31;4979014;28;20199;-79
2022/01/16 06:41:23;;;;;;;26.67;18.15;;;;;;;1.58;75.77;95859.63;5013290;28;20202;-79
2022/01/16 06:43:50;;;;;;;24.05;13.70;;;;;;;1.63;75.34;95862.88;5013302;28;20224;-78
2022/01/16 06:46:17;;;;;;;16.70;12.20;;;;;;;1.67;75.19;95867.91;5012666;28;20197;-78
2022/01/16 06:48:46;;;;;;;20.27;11.68;;;;;;;1.62;74.68;95862.03;5012632;28;20215;-78
2022/01/16 06:51:13;;;;;;;14.35;10.55;;;;;;;1.57;74.17;95868.28;5012796;28;20327;-79
2022/01/16 06:53:40;;;;;;;14.67;11.20;;;;;;;1.57;74.09;95863.94;5012929;28;20212;-77
2022/01/16 06:56:06;;;;;;;15.95;11.32;;;;;;;1.53;74.10;95859.78;5013181;28;20451;-77
2022/01/16 06:58:34;;;;;;;19.23;11.38;;;;;;;1.52;73.81;95871.03;5013120;28;20219;-77
2022/01/16 07:01:01;;;;;;;16.13;9.20;;;;;;;1.52;73.29;95879.63;5013799;28;20204;-77
2022/01/16 07:03:27;;;;;;;17.27;10.05;;;;;;;1.41;73.28;95876.53;5016217;28;20303;-78
2022/01/16 07:05:57;;;;;;;17.17;10.63;;;;;;;1.53;73.37;95880.47;5016268;28;20571;-78
2022/01/16 07:08:26;;;;;;;18.13;11.48;;;;;;;1.54;73.07;95889.91;4998635;28;20454;-77
2022/01/16 07:10:54;;;;;;;23.43;15.53;;;;;;;1.55;72.92;95886.44;4982745;28;20212;-76
2022/01/16 07:13:21;;;;;;;28.47;17.87;;;;;;;1.52;72.78;95894.31;5016341;28;20447;-79
2022/01/16 07:15:48;;;;;;;23.63;14.83;;;;;;;1.51;72.93;95887.44;5016798;28;20842;-81
2022/01/16 07:18:15;;;;;;;15.77;12.73;;;;;;;1.59;73.32;95900.09;5016359;28;20790;-77
2022/01/16 07:20:43;;;;;;;21.10;13.73;;;;;;;1.66;73.04;95889.50;5016572;28;20188;-78
2022/01/16 07:23:12;;;;;;;20.37;15.10;;;;;;;1.74;72.99;95891.84;5016565;28;20974;-78
2022/01/16 07:25:39;;;;;;;17.27;11.73;;;;;;;1.81;72.35;95886.41;5016184;28;20443;-79
2022/01/16 07:28:06;;;;;;;16.93;12.00;;;;;;;1.93;71.86;95887.69;5016037;28;20458;-78
2022/01/16 07:30:34;;;;;;;21.90;13.73;;;;;;;2.03;71.65;95890.84;5016094;28;20432;-78
2022/01/16 07:33:01;;;;;;;24.83;13.47;;;;;;;2.12;71.56;95886.16;5016602;28;20439;-78
2022/01/16 07:35:28;;;;;;;20.67;14.20;;;;;;;2.19;71.21;95897.13;5015783;28;20450;-78
2022/01/16 07:37:55;;;;;;;20.70;10.87;;;;;;;2.30;71.31;95892.41;5015704;28;20454;-78
2022/01/16 07:40:24;;;;;;;26.70;14.17;;;;;;;2.36;71.12;95896.53;4997605;28;20471;-79
2022/01/16 07:42:51;;;;;;;24.23;13.07;;;;;;;2.37;70.64;95901.66;5015749;28;20503;-80
2022/01/16 07:45:18;;;;;;;22.23;13.43;;;;;;;2.42;70.12;95907.50;5016038;28;20443;-80
2022/01/16 07:47:45;;;;;;;23.03;12.73;;;;;;;2.44;69.77;95910.03;4998048;28;20435;-84
2022/01/16 07:50:14;;;;;;;22.47;14.00;;;;;;;2.52;69.66;95904.56;5013873;28;20443;-79
2022/01/16 07:52:41;;;;;;;21.30;14.00;;;;;;;2.56;69.87;95906.13;5021859;28;20455;-79
2022/01/16 07:55:08;;;;;;;18.77;14.47;;;;;;;2.60;69.85;95915.47;5023536;28;20451;-80
2022/01/16 07:57:37;;;;;;;22.67;14.50;;;;;;;2.70;69.85;95919.44;5020189;28;20463;-76
2022/01/16 08:00:05;;;;;;;24.60;14.27;;;;;;;2.78;70.45;95920.84;5019076;28;20447;-76
2022/01/16 08:02:32;;;;;;;21.93;14.30;;;;;;;2.80;69.04;95920.78;5001896;28;20474;-76
2022/01/16 08:04:59;;;;;;;37.83;18.10;;;;;;;2.84;69.27;95919.75;5020217;28;20826;-76
2022/01/16 08:07:26;;;;;;;25.20;15.80;;;;;;;2.90;68.89;95923.88;5021048;28;20942;-79
2022/01/16 08:09:53;;;;;;;22.33;13.00;;;;;;;2.93;68.80;95922.00;5020009;28;20801;-77
2022/01/16 08:12:20;;;;;;;24.40;13.97;;;;;;;2.98;69.42;95920.06;5019188;28;20444;-78
2022/01/16 08:14:49;;;;;;;17.30;10.80;;;;;;;3.00;68.89;95902.72;5019095;28;20443;-77
2022/01/16 08:17:16;;;;;;;18.00;13.33;;;;;;;3.11;68.29;95917.84;5019087;28;20530;-77
2022/01/16 08:19:43;;;;;;;20.40;14.50;;;;;;;3.24;68.44;95923.41;5019134;28;20791;-77
2022/01/16 08:22:10;;;;;;;26.27;15.43;;;;;;;3.35;68.65;95919.47;5018606;28;20447;-77
2022/01/16 08:24:38;;;;;;;35.23;17.00;;;;;;;3.42;68.36;95912.28;5016191;28;20833;-77
2022/01/16 08:27:05;;;;;;;23.13;13.47;;;;;;;3.59;67.70;95919.38;5015096;28;20895;-77
2022/01/16 08:29:32;;;;;;;17.60;11.67;;;;;;;3.55;67.72;95905.69;4996942;28;20454;-77
2022/01/16 08:32:00;;;;;;;16.70;11.40;;;;;;;3.63;67.07;95908.81;5015365;28;20450;-78
2022/01/16 08:34:27;;;;;;;22.93;12.13;;;;;;;3.70;67.58;95917.19;5014723;28;20445;-79
2022/01/16 08:36:54;;;;;;;19.43;12.57;;;;;;;3.71;67.96;95913.69;5015395;28;20451;-78
2022/01/16 08:39:21;;;;;;;24.73;14.23;;;;;;;3.69;68.26;95905.97;5015086;28;20444;-78
2022/01/16 08:41:48;;;;;;;21.80;14.70;;;;;;;3.56;68.54;95901.34;5014685;28;20449;-77
2022/01/16 08:44:15;;;;;;;23.63;15.13;;;;;;;3.61;68.30;95892.47;5014359;28;20475;-78
2022/01/16 08:46:42;;;;;;;19.77;14.73;;;;;;;3.43;68.40;95891.47;5014547;28;20456;-77
2022/01/16 08:49:10;;;;;;;21.57;12.83;;;;;;;3.25;69.41;95900.00;5014514;28;20439;-77
2022/01/16 08:51:37;;;;;;;19.37;15.70;;;;;;;2.95;70.48;95896.03;5014698;28;20484;-77
2022/01/16 08:54:04;;;;;;;20.37;14.10;;;;;;;2.93;71.40;95896.09;5014149;28;20447;-78
2022/01/16 08:56:31;;;;;;;19.23;14.80;;;;;;;3.01;70.62;95894.03;4995986;28;20812;-78
2022/01/16 08:58:58;;;;;;;23.67;13.50;;;;;;;3.05;71.40;95893.00;4980023;28;20456;-77
2022/01/16 09:01:25;;;;;;;22.00;14.80;;;;;;;3.09;70.50;95889.38;5014573;28;20454;-78
2022/01/16 09:03:52;;;;;;;24.03;13.90;;;;;;;3.21;70.64;95889.81;5014213;28;20495;-77
2022/01/16 09:06:21;;;;;;;28.27;15.87;;;;;;;3.32;70.15;95879.84;5014380;28;20449;-77
2022/01/16 09:08:48;;;;;;;28.57;17.37;;;;;;;3.36;70.83;95882.25;5014427;28;20459;-77
2022/01/16 09:11:15;;;;;;;36.33;22.53;;;;;;;3.26;71.75;95883.53;5014441;28;20441;-77
2022/01/16 09:13:41;;;;;;;35.53;23.87;;;;;;;3.27;71.21;95880.03;5013884;28;20451;-77
2022/01/16 09:16:09;;;;;;;37.43;21.73;;;;;;;3.21;72.85;95879.44;5014012;28;20455;-78
2022/01/16 09:18:36;;;;;;;37.23;20.67;;;;;;;3.06;71.65;95875.69;5014091;28;20450;-77
2022/01/16 09:21:03;;;;;;;123.80;33.10;;;;;;;2.92;72.49;95873.66;5014274;28;20459;-78
2022/01/16 09:23:31;;;;;;;47.50;24.97;;;;;;;3.00;73.24;95871.59;5013381;28;20491;-78
2022/01/16 09:25:58;;;;;;;31.83;19.57;;;;;;;2.83;73.02;95865.38;5014716;28;20445;-78
2022/01/16 09:28:25;;;;;;;33.57;20.83;;;;;;;2.78;73.04;95860.38;4995340;28;20462;-77
2022/01/16 09:30:53;;;;;;;36.60;21.60;;;;;;;2.76;74.00;95857.00;5013869;28;20777;-78
2022/01/16 09:33:20;;;;;;;37.20;22.63;;;;;;;2.87;73.04;95854.81;5013614;28;20831;-78
2022/01/16 09:35:46;;;;;;;39.73;24.90;;;;;;;2.81;73.71;95852.47;5014039;28;20450;-78
2022/01/16 09:38:13;;;;;;;33.13;21.10;;;;;;;2.81;73.31;95855.06;5013893;28;20447;-77
2022/01/16 09:40:45;;;;;;;29.80;18.70;;;;;;;2.64;73.93;95847.13;5013929;28;20454;-77
2022/01/16 09:43:12;;;;;;;34.13;20.40;;;;;;;2.49;74.08;95853.72;5013793;28;20515;-77
2022/01/16 09:45:39;;;;;;;29.83;19.93;;;;;;;2.37;75.09;95851.59;5013483;28;20451;-77
2022/01/16 09:48:06;;;;;;;54.63;26.40;;;;;;;2.53;75.04;95841.50;5013563;28;20444;-77
2022/01/16 09:50:34;;;;;;;85.40;30.60;;;;;;;2.88;74.65;95835.78;5013482;28;20471;-77
2022/01/16 09:53:01;;;;;;;35.50;22.70;;;;;;;3.15;72.65;95839.00;5013657;28;20450;-77
2022/01/16 09:55:28;;;;;;;34.00;20.10;;;;;;;3.37;71.98;95837.25;5013473;28;20445;-77
2022/01/16 09:57:57;;;;;;;28.77;19.67;;;;;;;3.64;72.14;95830.03;5013505;28;20450;-77
2022/01/16 10:00:25;;;;;;;41.23;24.20;;;;;;;3.78;70.42;95826.03;5013307;28;20451;-77
2022/01/16 10:02:53;;;;;;;38.10;23.60;;;;;;;3.92;70.10;95834.91;5013265;28;20964;-77
2022/01/16 10:05:29;;;;;;;44.83;22.73;;;;;;;4.06;69.00;95823.06;5013730;28;20590;-78
2022/01/16 10:07:57;;;;;;;28.40;19.47;;;;;;;4.07;69.12;95819.56;5013515;28;20466;-77
2022/01/16 10:10:30;;;;;;;33.07;20.00;;;;;;;4.26;69.90;95804.81;5013720;28;20799;-77
2022/01/16 10:13:06;;;;;;;32.27;19.63;;;;;;;4.32;69.74;95805.38;5013549;28;20461;-77
2022/01/16 10:15:34;;;;;;;30.60;18.17;;;;;;;4.21;68.62;95797.25;5013268;28;20459;-77
2022/01/16 10:18:04;;;;;;;35.37;20.33;;;;;;;3.90;70.11;95807.31;5013628;28;20476;-77
2022/01/16 10:20:46;;;;;;;31.67;21.63;;;;;;;4.07;69.97;95802.22;4994959;28;20449;-77
2022/01/16 10:23:21;;;;;;;30.23;20.50;;;;;;;4.09;68.90;95797.81;5013452;28;20578;-78
2022/01/16 10:25:49;;;;;;;33.93;21.43;;;;;;;3.84;70.27;95810.19;5013699;28;20453;-77
2022/01/16 10:28:19;;;;;;;28.87;17.93;;;;;;;3.74;70.31;95802.78;5014016;28;20449;-77
2022/01/16 10:30:47;;;;;;;36.63;22.80;;;;;;;3.82;69.98;95802.47;5012603;28;20936;-77
2022/01/16 10:33:16;;;;;;;48.27;23.00;;;;;;;3.94;69.50;95798.47;5012777;28;20936;-78
2022/01/16 10:35:47;;;;;;;37.30;23.93;;;;;;;3.95;68.69;95795.81;5015442;28;20445;-78
2022/01/16 10:38:18;;;;;;;36.10;23.53;;;;;;;4.14;69.55;95779.41;5017023;28;20538;-78
2022/01/16 10:40:50;;;;;;;38.63;23.43;;;;;;;4.31;69.48;95772.53;5017044;28;20457;-78
2022/01/16 10:43:19;;;;;;;37.83;24.00;;;;;;;4.24;67.30;95780.66;4983833;28;20516;-78
2022/01/16 10:45:46;;;;;;;36.50;23.33;;;;;;;4.19;68.56;95772.25;5017351;28;20449;-78
2022/01/16 10:48:15;;;;;;;46.50;23.53;;;;;;;4.31;68.59;95771.69;5017531;28;20441;-79
2022/01/16 10:50:43;;;;;;;38.70;23.67;;;;;;;4.34;68.71;95772.41;5021369;28;20474;-82
2022/01/16 10:53:12;;;;;;;35.43;22.13;;;;;;;4.43;67.29;95765.09;5015435;28;20450;-82
2022/01/16 10:55:43;;;;;;;39.27;24.10;;;;;;;4.55;67.58;95769.69;5030041;28;20477;-78
2022/01/16 10:58:14;;;;;;;32.83;22.27;;;;;;;4.56;67.05;95766.19;5017787;28;20617;-79
2022/01/16 11:00:44;;;;;;;35.23;21.70;;;;;;;4.29;67.20;95758.75;5016567;28;20452;-77
2022/01/16 11:03:12;;;;;;;36.70;20.50;;;;;;;4.02;67.91;95754.81;5016212;28;20485;-78
2022/01/16 11:05:41;;;;;;;33.27;21.90;;;;;;;4.18;68.53;95750.63;5016647;28;20811;-77
2022/01/16 11:08:12;;;;;;;29.90;20.80;;;;;;;4.40;68.12;95760.03;5016449;28;20921;-77
2022/01/16 11:10:40;;;;;;;39.60;23.97;;;;;;;4.54;68.20;95747.22;5016915;28;20450;-76
2022/01/16 11:13:09;;;;;;;31.67;20.43;;;;;;;4.62;66.92;95758.09;5015930;28;20461;-77
2022/01/16 11:15:38;;;;;;;29.73;20.17;;;;;;;4.68;66.15;95749.19;5016626;28;20453;-77
2022/01/16 11:18:08;;;;;;;30.53;20.70;;;;;;;4.82;66.40;95744.97;5016389;28;20449;-77
2022/01/16 11:20:36;;;;;;;31.10;19.50;;;;;;;4.89;65.76;95738.56;5016667;28;20450;-77
2022/01/16 11:23:12;;;;;;;36.43;22.70;;;;;;;5.00;65.66;95734.63;5016635;28;20496;-76
2022/01/16 11:25:40;;;;;;;34.27;21.40;;;;;;;4.80;65.56;95735.56;5016070;28;20481;-77
2022/01/16 11:28:11;;;;;;;39.23;22.47;;;;;;;4.73;66.88;95734.19;5016387;28;20464;-77
2022/01/16 11:30:42;;;;;;;35.87;20.80;;;;;;;4.66;66.94;95736.25;5016138;28;20842;-78
2022/01/16 11:33:10;;;;;;;30.63;21.40;;;;;;;4.72;66.86;95735.97;5016237;28;20458;-77
2022/01/16 11:35:48;;;;;;;28.77;21.03;;;;;;;4.68;66.16;95723.19;5015538;28;20462;-77
2022/01/16 11:38:16;;;;;;;36.30;23.20;;;;;;;4.42;67.95;95720.06;5015986;28;20442;-77
2022/01/16 11:40:48;;;;;;;28.93;19.73;;;;;;;4.55;68.25;95722.91;5015876;28;20461;-77
2022/01/16 11:43:23;;;;;;;32.87;19.13;;;;;;;4.39;68.73;95711.59;5016278;28;20456;-77
2022/01/16 11:45:53;;;;;;;35.23;22.17;;;;;;;4.61;68.31;95704.41;4997738;28;20902;-78
2022/01/16 11:48:37;;;;;;;41.40;20.17;;;;;;;4.56;68.05;95714.19;5015091;28;21163;-78
2022/01/16 11:51:06;;;;;;;32.00;21.70;;;;;;;4.39;67.91;95702.03;5015710;28;20466;-78
2022/01/16 11:54:09;;;;;;;36.70;22.60;;;;;;;4.39;68.00;95709.00;5015407;28;20456;-79
2022/01/16 11:56:53;;;;;;;34.60;20.73;;;;;;;4.54;68.59;95711.69;5015957;28;20446;-80
2022/01/16 11:59:21;;;;;;;36.77;19.70;;;;;;;4.70;67.82;95708.34;5015844;28;20450;-80
2022/01/16 12:01:51;;;;;;;30.23;19.23;;;;;;;4.86;67.69;95696.25;5015459;28;20446;-80
2022/01/16 12:05:05;;;;;;;30.80;19.97;;;;;;;4.74;66.23;95702.94;5015382;28;20485;-79
2022/01/16 12:07:56;;;;;;;33.13;20.60;;;;;;;4.96;65.86;95698.34;4974243;28;20455;-77
2022/01/16 12:10:41;;;;;;;31.90;20.10;;;;;;;4.70;66.66;95690.16;4973957;28;20470;-78
2022/01/16 12:13:52;;;;;;;35.10;21.60;;;;;;;4.90;67.30;95698.63;4974236;28;20447;-79
2022/01/16 12:16:47;;;;;;;27.20;19.17;;;;;;;4.93;66.74;95689.88;4955159;29;20489;-80